createdAt,value
2024-02-12T00:01:42.201Z,6.55
2024-02-12T00:04:09.101Z,5.53
2024-02-12T00:06:36.294Z,6.10
2024-02-12T00:09:06.560Z,5.40
2024-02-12T00:11:33.219Z,5.70
2024-02-12T00:14:01.211Z,4.85
2024-02-12T00:16:27.714Z,5.38
2024-02-12T00:18:54.344Z,5.13
2024-02-12T00:21:20.857Z,4.88
2024-02-12T00:23:47.834Z,4.97
2024-02-12T00:26:15.313Z,4.68
2024-02-12T00:28:42.606Z,5.30
2024-02-12T00:31:10.340Z,5.30
2024-02-12T00:33:37.190Z,4.60
2024-02-12T00:36:05.073Z,4.43
2024-02-12T00:38:31.571Z,4.90
2024-02-12T00:40:58.866Z,4.40
2024-02-12T00:43:27.966Z,4.50
2024-02-12T00:45:55.517Z,4.43
2024-02-12T00:48:22.128Z,4.53
2024-02-12T00:50:49.344Z,4.53
2024-02-12T00:53:16.368Z,4.00
2024-02-12T00:55:43.000Z,4.47
2024-02-12T00:58:10.801Z,4.68
2024-02-12T01:00:37.399Z,5.20
2024-02-12T01:03:05.391Z,4.35
2024-02-12T01:05:31.896Z,5.22
2024-02-12T01:07:58.368Z,4.22
2024-02-12T01:10:24.841Z,4.53
2024-02-12T01:12:51.802Z,4.35
2024-02-12T01:15:18.275Z,4.60
2024-02-12T01:17:50.834Z,4.60
2024-02-12T01:20:20.709Z,4.60
2024-02-12T01:22:47.277Z,4.93
2024-02-12T01:25:13.831Z,4.47
2024-02-12T01:27:40.633Z,4.25
2024-02-12T01:30:07.769Z,4.40
2024-02-12T01:32:35.276Z,4.47
2024-02-12T01:35:01.935Z,4.78
2024-02-12T01:37:28.707Z,4.40
2024-02-12T01:39:55.257Z,4.80
2024-02-12T01:42:22.183Z,4.85
2024-02-12T01:44:58.460Z,4.53
2024-02-12T01:47:25.773Z,5.03
2024-02-12T01:49:53.703Z,5.15
2024-02-12T01:52:20.691Z,5.32
2024-02-12T01:54:50.827Z,4.38
2024-02-12T01:57:18.807Z,4.82
2024-02-12T01:59:45.253Z,4.70
2024-02-12T02:02:15.995Z,4.65
2024-02-12T02:04:43.393Z,4.80
2024-02-12T02:07:23.056Z,4.85
2024-02-12T02:09:51.658Z,4.90
2024-02-12T02:12:18.192Z,4.82
2024-02-12T02:14:45.686Z,5.03
2024-02-12T02:17:13.708Z,5.18
2024-02-12T02:19:40.782Z,5.03
2024-02-12T02:22:09.336Z,5.25
2024-02-12T02:24:35.748Z,4.78
2024-02-12T02:27:02.192Z,5.50
2024-02-12T02:29:28.668Z,5.32
2024-02-12T02:31:55.198Z,5.35
2024-02-12T02:34:22.049Z,5.45
2024-02-12T02:36:49.726Z,5.85
2024-02-12T02:39:16.256Z,5.85
2024-02-12T02:41:47.213Z,5.88
2024-02-12T02:44:15.170Z,5.55
2024-02-12T02:46:42.173Z,5.47
2024-02-12T02:49:09.159Z,5.28
2024-02-12T02:51:38.889Z,5.15
2024-02-12T02:54:09.262Z,5.32
2024-02-12T02:56:35.710Z,5.70
2024-02-12T02:59:02.280Z,5.70
2024-02-12T03:01:29.359Z,6.03
2024-02-12T03:03:56.931Z,6.35
2024-02-12T03:06:25.035Z,6.65
2024-02-12T03:08:51.795Z,6.32
2024-02-12T03:11:20.104Z,6.50
2024-02-12T03:13:46.828Z,6.00
2024-02-12T03:16:17.185Z,6.90
2024-02-12T03:18:47.062Z,5.65
2024-02-12T03:21:20.136Z,6.45
2024-02-12T03:23:48.542Z,6.63
2024-02-12T03:26:18.194Z,6.95
2024-02-12T03:28:44.757Z,6.95
2024-02-12T03:31:11.875Z,6.95
2024-02-12T03:33:38.447Z,7.65
2024-02-12T03:36:05.530Z,7.18
2024-02-12T03:38:32.871Z,7.50
2024-02-12T03:40:59.471Z,7.05
2024-02-12T03:43:26.330Z,7.47
2024-02-12T03:45:56.593Z,7.72
2024-02-12T03:48:42.959Z,8.60
2024-02-12T03:51:28.784Z,8.80
2024-02-12T03:54:13.660Z,9.48
2024-02-12T03:56:58.496Z,9.35
2024-02-12T03:59:43.473Z,10.15
2024-02-12T04:02:11.182Z,11.20
2024-02-12T04:04:39.547Z,11.25
2024-02-12T04:07:06.579Z,12.48
2024-02-12T04:09:33.994Z,11.82
2024-02-12T04:12:00.423Z,12.50
2024-02-12T04:14:26.968Z,13.05
2024-02-12T04:16:53.524Z,12.82
2024-02-12T04:19:22.761Z,12.95
2024-02-12T04:21:53.280Z,11.75
2024-02-12T04:24:20.465Z,11.85
2024-02-12T04:26:47.645Z,12.05
2024-02-12T04:29:15.871Z,12.15
2024-02-12T04:31:42.951Z,12.00
2024-02-12T04:34:09.884Z,12.50
2024-02-12T04:36:43.227Z,12.52
2024-02-12T04:39:17.299Z,12.27
2024-02-12T04:41:47.360Z,13.45
2024-02-12T04:44:14.175Z,15.25
2024-02-12T04:46:42.871Z,15.27
2024-02-12T04:49:10.009Z,14.68
2024-02-12T04:51:39.898Z,15.07
2024-02-12T04:54:06.416Z,16.13
2024-02-12T04:56:33.141Z,16.50
2024-02-12T04:59:00.247Z,16.75
2024-02-12T05:01:30.054Z,16.80
2024-02-12T05:03:56.728Z,15.82
2024-02-12T05:06:23.832Z,16.70
2024-02-12T05:08:51.852Z,16.42
2024-02-12T05:11:18.494Z,16.67
2024-02-12T05:13:45.124Z,17.70
2024-02-12T05:16:12.432Z,17.92
2024-02-12T05:18:59.441Z,17.95
2024-02-12T05:21:44.948Z,17.50
2024-02-12T05:24:11.457Z,18.57
2024-02-12T05:26:40.117Z,18.30
2024-02-12T05:29:08.170Z,18.13
2024-02-12T05:31:36.951Z,18.60
2024-02-12T05:34:04.368Z,18.27
2024-02-12T05:36:31.784Z,18.50
2024-02-12T05:38:58.389Z,18.23
2024-02-12T05:41:25.123Z,18.38
2024-02-12T05:43:54.139Z,19.70
2024-02-12T05:46:20.848Z,18.33
2024-02-12T05:48:48.690Z,19.27
2024-02-12T05:51:15.711Z,18.70
2024-02-12T05:53:42.640Z,19.60
2024-02-12T05:56:09.268Z,18.92
2024-02-12T05:58:36.520Z,19.90
2024-02-12T06:01:03.686Z,19.17
2024-02-12T06:03:30.226Z,19.38
2024-02-12T06:05:57.631Z,19.77
2024-02-12T06:08:24.394Z,19.52
2024-02-12T06:10:50.974Z,19.60
2024-02-12T06:13:20.886Z,18.67
2024-02-12T06:15:47.513Z,20.02
2024-02-12T06:18:14.024Z,20.20
2024-02-12T06:20:40.968Z,20.08
2024-02-12T06:23:07.433Z,19.50
2024-02-12T06:25:34.206Z,18.17
2024-02-12T06:28:03.624Z,17.75
2024-02-12T06:30:30.042Z,19.48
2024-02-12T06:32:56.612Z,20.27
2024-02-12T06:35:24.482Z,21.17
2024-02-12T06:37:51.005Z,20.08
2024-02-12T06:40:17.413Z,20.70
2024-02-12T06:42:43.834Z,19.70
2024-02-12T06:45:10.918Z,20.58
2024-02-12T06:47:37.465Z,20.30
2024-02-12T06:50:07.279Z,22.00
2024-02-12T06:52:34.470Z,20.90
2024-02-12T06:55:01.141Z,21.45
2024-02-12T06:57:27.749Z,22.70
2024-02-12T06:59:54.174Z,21.98
2024-02-12T07:02:20.680Z,21.50
2024-02-12T07:04:48.688Z,23.10
2024-02-12T07:07:15.700Z,22.10
2024-02-12T07:09:42.114Z,21.90
2024-02-12T07:12:17.560Z,22.85
2024-02-12T07:14:44.867Z,22.45
2024-02-12T07:17:12.469Z,24.55
2024-02-12T07:19:38.907Z,23.63
2024-02-12T07:22:05.318Z,24.92
2024-02-12T07:24:31.776Z,23.75
2024-02-12T07:26:58.210Z,24.25
2024-02-12T07:29:24.667Z,23.52
2024-02-12T07:31:51.096Z,24.27
2024-02-12T07:34:18.155Z,24.23
2024-02-12T07:36:47.601Z,23.10
2024-02-12T07:39:17.627Z,24.45
2024-02-12T07:41:44.413Z,22.70
2024-02-12T07:44:11.820Z,23.55
2024-02-12T07:46:39.518Z,22.98
2024-02-12T07:49:07.224Z,23.98
2024-02-12T07:51:33.846Z,24.15
2024-02-12T07:54:00.291Z,23.67
2024-02-12T07:56:27.604Z,23.20
2024-02-12T07:58:55.803Z,23.58
2024-02-12T08:01:22.267Z,21.65
2024-02-12T08:03:49.940Z,23.98
2024-02-12T08:06:16.802Z,22.25
2024-02-12T08:08:44.388Z,22.30
2024-02-12T08:11:10.823Z,22.65
2024-02-12T08:13:37.254Z,22.70
2024-02-12T08:16:05.030Z,22.20
2024-02-12T08:18:31.885Z,22.98
2024-02-12T08:20:58.548Z,22.25
2024-02-12T08:23:25.200Z,21.88
2024-02-12T08:25:53.896Z,22.80
2024-02-12T08:28:25.416Z,23.30
2024-02-12T08:30:52.432Z,23.20
2024-02-12T08:33:18.941Z,22.33
2024-02-12T08:35:45.539Z,23.52
2024-02-12T08:38:12.013Z,23.77
2024-02-12T08:40:39.132Z,24.52
2024-02-12T08:43:06.143Z,24.83
2024-02-12T08:45:32.912Z,24.38
2024-02-12T08:47:59.406Z,25.77
2024-02-12T08:50:25.987Z,25.17
2024-02-12T08:52:54.371Z,26.92
2024-02-12T08:55:20.968Z,27.83
2024-02-12T08:57:47.388Z,27.38
2024-02-12T09:00:15.127Z,26.33
2024-02-12T09:02:44.513Z,25.45
2024-02-12T09:05:14.508Z,27.88
2024-02-12T09:07:41.733Z,27.98
2024-02-12T09:10:10.308Z,27.92
2024-02-12T09:12:48.210Z,27.27
2024-02-12T09:15:20.861Z,27.58
2024-02-12T09:17:47.606Z,26.77
2024-02-12T09:20:15.825Z,25.13
2024-02-12T09:22:42.446Z,27.02
2024-02-12T09:25:14.436Z,24.40
2024-02-12T09:27:47.279Z,25.77
2024-02-12T09:30:16.621Z,24.98
2024-02-12T09:32:49.124Z,24.85
2024-02-12T09:35:18.991Z,24.63
2024-02-12T09:37:47.194Z,25.50
2024-02-12T09:40:16.132Z,26.40
2024-02-12T09:42:42.799Z,27.60
2024-02-12T09:45:12.683Z,27.38
2024-02-12T09:47:45.175Z,26.75
2024-02-12T09:50:14.121Z,27.02
2024-02-12T09:52:41.315Z,26.10
2024-02-12T09:55:08.207Z,27.80
2024-02-12T09:57:34.643Z,26.67
2024-02-12T10:00:02.001Z,26.83
2024-02-12T10:02:36.883Z,26.38
2024-02-12T10:05:09.094Z,25.10
2024-02-12T10:07:42.266Z,26.08
2024-02-12T10:10:10.042Z,25.25
2024-02-12T10:12:37.667Z,26.13
2024-02-12T10:15:05.688Z,26.45
2024-02-12T10:17:32.698Z,27.55
2024-02-12T10:19:59.486Z,27.02
2024-02-12T10:22:26.158Z,25.60
2024-02-12T10:24:52.651Z,25.08
2024-02-12T10:27:22.288Z,25.80
2024-02-12T10:30:08.220Z,25.63
2024-02-12T10:32:39.117Z,24.65
2024-02-12T10:35:12.593Z,25.52
2024-02-12T10:37:39.527Z,25.73
2024-02-12T10:40:13.997Z,24.83
2024-02-12T10:42:49.922Z,27.10
2024-02-12T10:45:18.249Z,27.15
2024-02-12T10:47:45.366Z,24.92
2024-02-12T10:50:14.418Z,24.63
2024-02-12T10:52:42.766Z,24.48
2024-02-12T10:55:10.944Z,24.70
2024-02-12T10:57:40.012Z,24.65
2024-02-12T11:00:07.256Z,23.85
2024-02-12T11:02:46.402Z,24.45
2024-02-12T11:05:13.527Z,24.10
2024-02-12T11:07:46.508Z,23.63
2024-02-12T11:10:25.223Z,23.48
2024-02-12T11:12:51.647Z,22.83
2024-02-12T11:15:28.816Z,22.33
2024-02-12T11:17:55.713Z,20.40
2024-02-12T11:20:23.305Z,19.50
2024-02-12T11:22:50.485Z,19.33
2024-02-12T11:25:22.940Z,18.73
2024-02-12T11:27:52.899Z,19.88
2024-02-12T11:30:20.644Z,19.67
2024-02-12T11:32:48.832Z,18.40
2024-02-12T11:35:19.389Z,18.33
2024-02-12T11:37:49.708Z,18.67
2024-02-12T11:40:20.363Z,18.23
2024-02-12T11:42:51.972Z,20.00
2024-02-12T11:45:19.699Z,18.02
2024-02-12T11:47:49.837Z,17.38
2024-02-12T11:50:25.791Z,18.35
2024-02-12T11:52:53.532Z,19.52
2024-02-12T11:55:20.144Z,19.85
2024-02-12T11:57:49.751Z,18.48
2024-02-12T12:00:21.317Z,19.58
2024-02-12T12:02:53.127Z,20.08
2024-02-12T12:05:27.562Z,20.00
2024-02-12T12:07:55.399Z,19.55
2024-02-12T12:10:27.761Z,20.38
2024-02-12T12:13:00.378Z,20.77
2024-02-12T12:15:31.839Z,20.17
2024-02-12T12:18:01.655Z,20.25
2024-02-12T12:20:31.439Z,19.73
2024-02-12T12:23:01.075Z,20.05
2024-02-12T12:25:27.726Z,19.77
2024-02-12T12:27:54.140Z,20.75
2024-02-12T12:30:20.899Z,20.67
2024-02-12T12:32:49.013Z,19.52
2024-02-12T12:35:16.913Z,20.38
2024-02-12T12:37:43.745Z,20.33
2024-02-12T12:40:20.396Z,19.63
2024-02-12T12:42:48.619Z,19.42
2024-02-12T12:45:16.642Z,19.35
2024-02-12T12:47:44.186Z,20.10
2024-02-12T12:50:11.506Z,19.65
2024-02-12T12:52:39.401Z,18.92
2024-02-12T12:55:11.989Z,18.48
2024-02-12T12:57:39.656Z,18.75
2024-02-12T13:00:16.743Z,17.65
2024-02-12T13:02:44.467Z,17.00
2024-02-12T13:05:13.171Z,18.00
2024-02-12T13:07:41.768Z,18.42
2024-02-12T13:10:40.294Z,16.45
2024-02-12T13:13:07.378Z,16.02
2024-02-12T13:15:34.281Z,16.55
2024-02-12T13:18:00.809Z,15.93
2024-02-12T13:20:28.431Z,15.75
2024-02-12T13:22:56.641Z,15.77
2024-02-12T13:25:32.972Z,15.40
2024-02-12T13:28:01.026Z,15.23
2024-02-12T13:30:30.953Z,13.60
2024-02-12T13:33:10.354Z,14.35
2024-02-12T13:35:39.173Z,14.15
2024-02-12T13:38:06.375Z,13.73
2024-02-12T13:40:33.831Z,12.85
2024-02-12T13:43:01.717Z,12.00
2024-02-12T13:45:28.337Z,11.70
2024-02-12T13:47:56.638Z,11.10
2024-02-12T13:50:24.330Z,10.50
2024-02-12T13:52:51.426Z,10.60
2024-02-12T13:55:18.070Z,10.43
2024-02-12T13:57:45.594Z,11.55
2024-02-12T14:00:37.575Z,10.55
2024-02-12T14:03:06.734Z,9.85
2024-02-12T14:05:33.512Z,10.35
2024-02-12T14:08:00.205Z,10.35
2024-02-12T14:10:27.725Z,10.45
2024-02-12T14:12:55.063Z,10.43
2024-02-12T14:16:01.737Z,10.90
2024-02-12T14:18:10.470Z,10.32
2024-02-12T14:20:37.347Z,9.98
2024-02-12T14:23:06.614Z,10.45
2024-02-12T14:25:34.804Z,10.60
2024-02-12T14:28:01.588Z,18.58
2024-02-12T14:30:30.062Z,12.32
2024-02-12T14:32:57.146Z,10.45
2024-02-12T14:35:25.750Z,10.95
2024-02-12T14:37:57.435Z,10.77
2024-02-12T14:40:24.631Z,10.65
2024-02-12T14:42:51.253Z,10.85
2024-02-12T14:45:17.855Z,10.68
2024-02-12T14:47:45.803Z,10.13
2024-02-12T14:50:13.513Z,10.65
2024-02-12T14:52:40.314Z,10.00
2024-02-12T14:55:08.437Z,10.35
2024-02-12T14:57:34.864Z,9.50
2024-02-12T15:00:01.326Z,10.10
2024-02-12T15:02:27.967Z,9.40
2024-02-12T15:04:55.801Z,8.85
2024-02-12T15:07:25.093Z,9.95
2024-02-12T15:09:51.499Z,9.55
2024-02-12T15:12:24.540Z,9.52
2024-02-12T15:14:52.064Z,9.52
2024-02-12T15:17:21.629Z,8.88
2024-02-12T15:19:49.217Z,9.43
2024-02-12T15:22:17.215Z,8.73
2024-02-12T15:24:43.751Z,8.77
2024-02-12T15:27:11.356Z,8.40
2024-02-12T15:29:43.162Z,8.45
2024-02-12T15:32:10.191Z,7.70
2024-02-12T15:34:38.176Z,8.35
2024-02-12T15:37:07.969Z,9.52
2024-02-12T15:39:35.112Z,10.25
2024-02-12T15:42:07.027Z,10.48
2024-02-12T15:44:34.080Z,11.25
2024-02-12T15:47:00.810Z,11.32
2024-02-12T15:49:29.182Z,10.73
2024-02-12T15:51:56.016Z,11.80
2024-02-12T15:54:23.714Z,11.75
2024-02-12T15:56:56.498Z,11.38
2024-02-12T15:59:24.134Z,11.13
2024-02-12T16:01:55.433Z,12.68
2024-02-12T16:04:24.835Z,11.93
2024-02-12T16:06:51.334Z,13.27
2024-02-12T16:09:19.336Z,13.20
2024-02-12T16:11:45.793Z,12.77
2024-02-12T16:14:12.757Z,13.32
2024-02-12T16:16:41.444Z,12.73
2024-02-12T16:19:07.881Z,13.55
2024-02-12T16:21:34.679Z,13.20
2024-02-12T16:24:01.195Z,13.40
2024-02-12T16:26:28.157Z,14.00
2024-02-12T16:28:59.206Z,8.70
2024-02-12T16:31:27.425Z,4.65
2024-02-12T16:33:54.138Z,2.83
2024-02-12T16:36:20.860Z,2.78
2024-02-12T16:38:47.343Z,2.75
2024-02-12T16:41:15.704Z,3.58
2024-02-12T16:43:42.994Z,3.90
2024-02-12T16:46:09.866Z,4.10
2024-02-12T16:48:39.770Z,4.57
2024-02-12T16:51:07.016Z,5.13
2024-02-12T16:53:34.352Z,5.40
2024-02-12T16:56:01.280Z,5.30
2024-02-12T16:58:28.334Z,6.05
2024-02-12T17:00:57.099Z,7.20
2024-02-12T17:03:23.509Z,6.20
2024-02-12T17:05:50.062Z,6.88
2024-02-12T17:08:17.127Z,6.40
2024-02-12T17:10:44.277Z,6.30
2024-02-12T17:13:14.623Z,6.63
2024-02-12T17:15:42.652Z,7.35
2024-02-12T17:18:10.683Z,6.85
2024-02-12T17:20:38.393Z,7.53
2024-02-12T17:23:05.687Z,7.45
2024-02-12T17:25:32.086Z,7.70
2024-02-12T17:27:58.642Z,9.27
2024-02-12T17:30:29.742Z,8.27
2024-02-12T17:32:57.703Z,10.10
2024-02-12T17:35:24.548Z,12.10
2024-02-12T17:37:51.033Z,17.75
2024-02-12T17:40:17.955Z,12.32
2024-02-12T17:42:44.528Z,11.25
2024-02-12T17:45:11.427Z,12.45
2024-02-12T17:47:41.402Z,37.45
2024-02-12T17:50:09.399Z,20.85
2024-02-12T17:52:36.061Z,13.38
2024-02-12T17:55:02.707Z,12.00
2024-02-12T17:57:29.133Z,10.52
2024-02-12T17:59:55.601Z,10.82
2024-02-12T18:02:22.109Z,11.82
2024-02-12T18:04:49.416Z,10.98
2024-02-12T18:07:15.907Z,11.52
2024-02-12T18:09:43.879Z,12.32
2024-02-12T18:12:11.479Z,11.05
2024-02-12T18:14:38.474Z,11.70
2024-02-12T18:17:05.980Z,11.75
2024-02-12T18:19:33.156Z,10.95
2024-02-12T18:22:00.121Z,11.15
2024-02-12T18:24:27.226Z,11.55
2024-02-12T18:26:53.711Z,13.35
2024-02-12T18:29:23.101Z,14.23
2024-02-12T18:31:49.632Z,13.40
2024-02-12T18:34:16.191Z,13.88
2024-02-12T18:36:42.611Z,12.95
2024-02-12T18:39:11.145Z,13.45
2024-02-12T18:41:37.807Z,12.50
2024-02-12T18:44:05.433Z,12.35
2024-02-12T18:46:32.183Z,11.70
2024-02-12T18:48:58.672Z,12.85
2024-02-12T18:51:25.282Z,13.43
2024-02-12T18:53:52.102Z,13.20
2024-02-12T18:56:20.510Z,12.90
2024-02-12T18:58:50.370Z,12.05
2024-02-12T19:01:19.304Z,12.70
2024-02-12T19:03:51.649Z,12.57
2024-02-12T19:06:19.375Z,12.18
2024-02-12T19:08:46.081Z,11.73
2024-02-12T19:11:14.911Z,10.88
2024-02-12T19:13:44.761Z,9.25
2024-02-12T19:16:12.466Z,10.10
2024-02-12T19:18:41.694Z,10.07
2024-02-12T19:21:08.136Z,9.55
2024-02-12T19:23:34.592Z,9.70
2024-02-12T19:26:01.038Z,8.50
2024-02-12T19:28:27.664Z,8.50
2024-02-12T19:30:55.481Z,9.23
2024-02-12T19:33:21.962Z,9.00
2024-02-12T19:35:49.122Z,9.35
2024-02-12T19:38:15.697Z,9.43
2024-02-12T19:40:42.195Z,9.13
2024-02-12T19:43:10.829Z,8.20
2024-02-12T19:45:37.529Z,9.07
2024-02-12T19:48:05.546Z,9.38
2024-02-12T19:50:32.227Z,8.65
2024-02-12T19:52:58.728Z,8.75
2024-02-12T19:55:25.375Z,8.45
2024-02-12T19:57:51.836Z,8.55
2024-02-12T20:00:18.671Z,7.85
2024-02-12T20:02:46.543Z,7.22
2024-02-12T20:05:13.294Z,7.47
2024-02-12T20:07:40.846Z,8.15
2024-02-12T20:10:12.429Z,8.68
2024-02-12T20:12:40.995Z,7.97
2024-02-12T20:15:12.021Z,7.97
2024-02-12T20:17:43.052Z,8.23
2024-02-12T20:20:10.536Z,8.18
2024-02-12T20:22:37.357Z,7.53
2024-02-12T20:25:04.924Z,6.88
2024-02-12T20:27:32.469Z,6.97
2024-02-12T20:29:59.848Z,7.85
2024-02-12T20:32:28.269Z,7.80
2024-02-12T20:34:55.245Z,7.70
2024-02-12T20:37:22.235Z,8.23
2024-02-12T20:39:51.649Z,7.97
2024-02-12T20:42:18.808Z,7.90
2024-02-12T20:44:45.875Z,8.43
2024-02-12T20:47:19.276Z,9.02
2024-02-12T20:49:46.748Z,9.00
2024-02-12T20:52:13.751Z,9.32
2024-02-12T20:54:40.264Z,9.60
2024-02-12T20:57:06.820Z,10.32
2024-02-12T20:59:33.489Z,9.77
2024-02-12T21:02:01.007Z,9.55
2024-02-12T21:04:27.441Z,9.73
2024-02-12T21:06:55.758Z,9.82
2024-02-12T21:09:22.252Z,10.10
2024-02-12T21:11:49.099Z,9.88
2024-02-12T21:14:15.700Z,9.85
2024-02-12T21:16:42.190Z,9.80
2024-02-12T21:19:08.629Z,9.10
2024-02-12T21:21:41.165Z,8.90
2024-02-12T21:24:10.844Z,9.35
2024-02-12T21:26:37.335Z,9.48
2024-02-12T21:29:05.371Z,9.23
2024-02-12T21:31:31.877Z,9.15
2024-02-12T21:33:59.569Z,8.63
2024-02-12T21:36:26.089Z,8.38
2024-02-12T21:38:52.672Z,8.27
2024-02-12T21:41:31.286Z,7.85
2024-02-12T21:43:57.876Z,7.72
2024-02-12T21:46:25.827Z,7.82
2024-02-12T21:48:53.665Z,8.00
2024-02-12T21:51:20.393Z,7.90
2024-02-12T21:53:46.914Z,7.95
2024-02-12T21:56:14.622Z,7.68
2024-02-12T21:58:41.275Z,7.35
2024-02-12T22:01:11.603Z,7.20
2024-02-12T22:03:38.695Z,7.75
2024-02-12T22:06:05.486Z,7.45
2024-02-12T22:08:32.090Z,7.72
2024-02-12T22:10:58.577Z,7.55
2024-02-12T22:13:25.216Z,7.60
2024-02-12T22:15:51.669Z,7.05
2024-02-12T22:18:18.245Z,7.55
2024-02-12T22:20:46.704Z,8.13
2024-02-12T22:23:13.774Z,7.63
2024-02-12T22:25:40.721Z,8.27
2024-02-12T22:28:08.958Z,7.85
2024-02-12T22:30:36.216Z,7.60
2024-02-12T22:33:09.552Z,8.05
2024-02-12T22:35:36.814Z,7.80
2024-02-12T22:38:04.776Z,7.38
2024-02-12T22:40:31.743Z,7.35
2024-02-12T22:42:58.158Z,7.75
2024-02-12T22:45:28.058Z,7.03
2024-02-12T22:47:58.143Z,7.20
2024-02-12T22:50:28.843Z,7.25
2024-02-12T22:52:55.532Z,7.25
2024-02-12T22:55:23.249Z,7.88
2024-02-12T22:57:49.738Z,7.10
2024-02-12T23:00:17.513Z,8.10
2024-02-12T23:02:44.003Z,8.57
2024-02-12T23:05:11.523Z,8.60
2024-02-12T23:07:38.118Z,8.48
2024-02-12T23:10:04.955Z,8.57
2024-02-12T23:12:31.408Z,7.95
2024-02-12T23:15:00.810Z,8.52
2024-02-12T23:17:28.409Z,8.65
2024-02-12T23:19:58.952Z,8.48
2024-02-12T23:22:25.948Z,8.75
2024-02-12T23:24:52.540Z,8.40
2024-02-12T23:27:19.310Z,8.60
2024-02-12T23:29:46.215Z,9.00
2024-02-12T23:32:15.665Z,7.90
2024-02-12T23:34:42.470Z,8.55
2024-02-12T23:37:10.407Z,8.32
2024-02-12T23:39:37.226Z,8.10
2024-02-12T23:42:06.019Z,8.18
2024-02-12T23:44:33.290Z,8.27
2024-02-12T23:47:00.369Z,8.55
2024-02-12T23:49:28.177Z,8.50
2024-02-12T23:51:55.272Z,7.70
2024-02-12T23:54:21.758Z,8.30
2024-02-12T23:56:48.433Z,8.93
2024-02-12T23:59:15.074Z,9.18
